Time;durP1;ratioP1;P1;durP2;ratioP2;P2;SDS_P1;SDS_P2;PMS_P1;PMS_P2;Temp;Humidity;BMP_temperature;BMP_pressure;BME280_temperature;BME280_humidity;BME280_pressure;Samples;Min_cycle;Max_cycle;Signal;HPM_P1;HPM_P2
2022/02/20 00:00:38;;;;;;;14.98;5.70;;;;;;;;;;5070940;28;20017;-55
2022/02/20 00:03:04;;;;;;;17.10;5.60;;;;;;;;;;5069219;28;20024;-60
2022/02/20 00:05:30;;;;;;;14.48;5.20;;;;;;;;;;5063544;28;20045;-59
2022/02/20 00:07:57;;;;;;;14.27;5.10;;;;;;;;;;5059665;28;20488;-60
2022/02/20 00:10:23;;;;;;;14.05;4.90;;;;;;;;;;5062613;28;20382;-60
2022/02/20 00:12:49;;;;;;;14.18;4.70;;;;;;;;;;5062846;28;20083;-60
2022/02/20 00:15:15;;;;;;;14.30;5.22;;;5.30;99.90;;;;;;5049416;28;20079;-61
2022/02/20 00:17:40;;;;;;;14.32;4.57;;;6.20;99.90;;;;;;5055087;28;20045;-57
2022/02/20 00:20:07;;;;;;;12.82;4.90;;;6.20;99.90;;;;;;5057649;28;20439;-60
2022/02/20 00:22:34;;;;;;;13.20;4.57;;;6.20;99.90;;;;;;5064264;28;20021;-60
2022/02/20 00:25:00;;;;;;;12.68;3.88;;;6.20;99.90;;;;;;5063184;28;20111;-59
2022/02/20 00:27:27;;;;;;;13.50;4.45;;;;;;;;;;5079333;23;20048;-50
2022/02/20 00:29:53;;;;;;;17.98;4.43;;;;;;;;;;5092683;28;20036;-50
2022/02/20 00:32:19;;;;;;;21.70;4.93;;;;;;;;;;5092978;28;20048;-51
2022/02/20 00:34:45;;;;;;;17.98;5.18;;;;;;;;;;5093021;28;20067;-52
2022/02/20 00:37:12;;;;;;;14.07;4.15;;;;;;;;;;5093950;28;20449;-54
2022/02/20 00:39:38;;;;;;;16.77;4.45;;;;;;;;;;5093947;28;20492;-52
2022/02/20 00:42:04;;;;;;;17.75;4.78;;;;;;;;;;5094055;28;20035;-49
2022/02/20 00:44:30;;;;;;;13.63;4.35;;;;;;;;;;5093206;28;20024;-49
2022/02/20 00:46:55;;;;;;;14.25;4.82;;;6.20;99.90;;;;;;5093365;28;20032;-51
2022/02/20 00:49:21;;;;;;;13.45;4.30;;;6.30;99.90;;;;;;5075252;28;20066;-54
2022/02/20 00:51:47;;;;;;;17.15;5.38;;;6.30;99.90;;;;;;5093496;28;20027;-51
2022/02/20 00:54:12;;;;;;;11.80;4.18;;;6.30;99.90;;;;;;5074443;28;20028;-52
2022/02/20 00:56:38;;;;;;;15.27;4.25;;;6.30;99.90;;;;;;5093562;28;20135;-52
2022/02/20 00:59:04;;;;;;;14.38;4.20;;;6.30;99.90;;;;;;5075096;28;20027;-52
2022/02/20 01:01:30;;;;;;;14.10;4.57;;;6.30;99.90;;;;;;5093033;28;20558;-52
2022/02/20 01:03:56;;;;;;;16.52;4.50;;;6.20;99.90;;;;;;5092772;28;20028;-51
2022/02/20 01:06:22;;;;;;;15.30;4.85;;;6.20;99.90;;;;;;5093014;28;20031;-50
2022/02/20 01:08:48;;;;;;;11.10;3.83;;;6.20;99.90;;;;;;5075213;28;20019;-53
2022/02/20 01:11:14;;;;;;;15.35;5.13;;;6.10;99.90;;;;;;5093085;28;20476;-54
2022/02/20 01:13:39;;;;;;;13.13;4.32;;;6.10;99.90;;;;;;5074714;28;20377;-51
2022/02/20 01:16:05;;;;;;;13.85;4.53;;;6.00;99.90;;;;;;5092143;28;20028;-50
2022/02/20 01:18:31;;;;;;;13.52;4.05;;;6.00;99.90;;;;;;5074661;28;20108;-51
2022/02/20 01:20:57;;;;;;;15.20;4.15;;;6.00;99.90;;;;;;5074624;28;20551;-53
2022/02/20 01:23:22;;;;;;;10.85;3.72;;;6.00;99.90;;;;;;5074657;28;20381;-53
2022/02/20 01:25:48;;;;;;;12.45;3.95;;;6.00;99.90;;;;;;5073841;28;20372;-52
2022/02/20 01:28:13;;;;;;;13.38;4.95;;;5.90;99.90;;;;;;5093308;28;20055;-50
2022/02/20 01:30:39;;;;;;;12.25;4.05;;;5.90;99.90;;;;;;5092538;28;20436;-52
2022/02/20 01:33:05;;;;;;;17.50;4.43;;;5.90;99.90;;;;;;5092713;28;20515;-50
2022/02/20 01:35:30;;;;;;;15.90;4.28;;;5.90;99.90;;;;;;5073664;28;20031;-50
2022/02/20 01:37:56;;;;;;;13.02;4.30;;;5.90;99.90;;;;;;5092425;28;20016;-49
2022/02/20 01:40:23;;;;;;;16.55;4.53;;;;;;;;;;5092482;28;20027;-51
2022/02/20 01:42:49;;;;;;;11.95;3.88;;;;;;;;;;5092632;28;20027;-51
2022/02/20 01:45:16;;;;;;;14.27;4.90;;;;;;;;;;5091584;28;20475;-54
2022/02/20 01:47:42;;;;;;;12.55;3.72;;;;;;;;;;5092626;28;20023;-55
2022/02/20 01:50:09;;;;;;;11.52;3.45;;;;;;;;;;5091961;28;20032;-52
2022/02/20 01:52:36;;;;;;;18.30;3.80;;;;;;;;;;5074488;28;20036;-53
2022/02/20 01:55:07;;;;;;;12.98;3.90;;;;;;;;;;5073483;28;20423;-55
2022/02/20 01:57:33;;;;;;;11.75;3.90;;;;;;;;;;5074093;28;20035;-52
2022/02/20 02:00:00;;;;;;;17.17;3.88;;;;;;;;;;5092219;28;20024;-49
2022/02/20 02:02:26;;;;;;;13.68;3.95;;;;;;;;;;5092370;28;20081;-49
2022/02/20 02:04:52;;;;;;;15.88;4.20;;;;;;;;;;5091731;28;20028;-50
2022/02/20 02:07:18;;;;;;;13.38;4.13;;;;;;;;;;5073967;28;20392;-47
2022/02/20 02:09:44;;;;;;;15.20;3.67;;;;;;;;;;5092138;28;20120;-54
2022/02/20 02:12:10;;;;;;;11.63;4.75;;;;;;;;;;5092169;28;20050;-51
2022/02/20 02:14:55;;;;;;;13.05;3.70;;;;;;;;;;5091354;28;20024;-51
2022/02/20 02:17:21;;;;;;;13.43;3.72;;;;;;;;;;5092055;28;20070;-50
2022/02/20 02:19:47;;;;;;;10.77;3.22;;;;;;;;;;5092236;28;20067;-58
2022/02/20 02:22:14;;;;;;;9.85;3.53;;;;;;;;;;5092326;28;20119;-50
2022/02/20 02:24:40;;;;;;;11.85;4.28;;;;;;;;;;5091355;28;20028;-54
2022/02/20 02:27:05;;;;;;;10.13;3.50;;;;;;;;;;5091877;28;20381;-55
2022/02/20 02:29:32;;;;;;;11.68;3.95;;;;;;;;;;5074215;28;20035;-52
2022/02/20 02:31:58;;;;;;;22.77;4.75;;;;;;;;;;5092150;28;20038;-54
2022/02/20 02:34:24;;;;;;;12.25;4.13;;;;;;;;;;5091441;28;20107;-50
2022/02/20 02:36:50;;;;;;;12.55;3.60;;;;;;;;;;5073658;28;20081;-55
2022/02/20 02:39:16;;;;;;;14.60;4.10;;;;;;;;;;5092279;28;20073;-55
2022/02/20 02:41:42;;;;;;;12.65;4.07;;;;;;;;;;5092139;28;20030;-55
2022/02/20 02:44:08;;;;;;;11.27;3.90;;;;;;;;;;5091322;28;20205;-54
2022/02/20 02:46:34;;;;;;;15.50;4.28;;;;;;;;;;5092279;28;20148;-56
2022/02/20 02:49:01;;;;;;;13.52;3.53;;;;;;;;;;5073774;28;20492;-52
2022/02/20 02:51:27;;;;;;;10.82;3.28;;;;;;;;;;5092309;28;20039;-54
2022/02/20 02:53:55;;;;;;;14.80;3.83;;;;;;;;;;5091036;28;20468;-51
2022/02/20 02:56:21;;;;;;;14.68;4.05;;;;;;;;;;5091760;28;20012;-56
2022/02/20 02:58:47;;;;;;;10.25;3.55;;;;;;;;;;5073587;28;20024;-51
2022/02/20 03:01:14;;;;;;;12.10;3.60;;;;;;;;;;5074809;28;20092;-52
2022/02/20 03:03:40;;;;;;;9.02;2.90;;;;;;;;;;5077547;28;20036;-52
2022/02/20 03:06:10;;;;;;;11.20;4.00;;;;;;;;;;5095268;28;20108;-51
2022/02/20 03:08:36;;;;;;;18.02;3.90;;;;;;;;;;5097104;28;20028;-53
2022/02/20 03:11:03;;;;;;;14.73;3.47;;;;;;;;;;5095585;28;20024;-54
2022/02/20 03:13:29;;;;;;;12.48;4.28;;;;;;;;;;5077242;28;20480;-53
2022/02/20 03:15:55;;;;;;;12.35;3.40;;;;;;;;;;5094985;28;20121;-55
2022/02/20 03:18:21;;;;;;;8.98;3.08;;;;;;;;;;5077843;28;20024;-51
2022/02/20 03:20:47;;;;;;;8.95;3.03;;;;;;;;;;5097568;28;20026;-56
2022/02/20 03:23:13;;;;;;;10.10;3.25;;;;;;;;;;5080677;28;20032;-55
2022/02/20 03:25:39;;;;;;;12.60;3.63;;;;;;;;;;5078976;28;20071;-51
2022/02/20 03:28:05;;;;;;;13.02;4.03;;;;;;;;;;5095156;28;20060;-51
2022/02/20 03:30:31;;;;;;;12.38;3.30;;;;;;;;;;5095203;28;20060;-51
2022/02/20 03:32:57;;;;;;;11.40;3.72;;;;;;;;;;5095509;28;20408;-54
2022/02/20 03:35:24;;;;;;;11.55;3.55;;;;;;;;;;5094693;28;20472;-51
2022/02/20 03:37:50;;;;;;;12.35;3.28;;;;;;;;;;5095301;28;20028;-54
2022/02/20 03:40:16;;;;;;;10.80;3.50;;;;;;;;;;5076699;28;20024;-51
2022/02/20 03:42:42;;;;;;;11.18;3.53;;;;;;;;;;5094676;28;20047;-50
2022/02/20 03:45:08;;;;;;;7.25;3.03;;;;;;;;;;5076258;28;20441;-51
2022/02/20 03:47:34;;;;;;;10.18;3.88;;;;;;;;;;5095052;28;20028;-53
2022/02/20 03:50:00;;;;;;;10.43;3.50;;;;;;;;;;5095250;28;20032;-53
2022/02/20 03:52:26;;;;;;;10.50;3.55;;;;;;;;;;5076991;28;20024;-52
2022/02/20 03:54:52;;;;;;;13.60;4.07;;;;;;;;;;5094305;28;20358;-53
2022/02/20 03:57:19;;;;;;;9.70;3.45;;;;;;;;;;5094843;28;20097;-52
2022/02/20 03:59:45;;;;;;;12.32;3.60;;;;;;;;;;5076823;28;20024;-52
2022/02/20 04:02:11;;;;;;;10.38;3.58;;;;;;;;;;5094633;28;20024;-56
2022/02/20 04:04:37;;;;;;;9.40;3.90;;;;;;;;;;5094123;28;20056;-51
2022/02/20 04:07:04;;;;;;;8.98;3.33;;;;;;;;;;5095387;28;20016;-51
2022/02/20 04:09:30;;;;;;;10.68;3.28;;;;;;;;;;5096673;28;20028;-53
2022/02/20 04:11:55;;;;;;;10.70;3.40;;;;;;;;;;5096110;28;20043;-55
2022/02/20 04:14:21;;;;;;;10.57;3.67;;;;;;;;;;5094841;28;20063;-55
2022/02/20 04:16:47;;;;;;;11.02;3.53;;;;;;;;;;5094314;28;20016;-53
2022/02/20 04:19:13;;;;;;;7.25;3.20;;;;;;;;;;5094719;28;20084;-52
2022/02/20 04:21:39;;;;;;;8.15;3.20;;;;;;;;;;5094271;28;20021;-50
2022/02/20 04:24:06;;;;;;;9.60;3.90;;;;;;;;;;5075586;28;20027;-53
2022/02/20 04:26:32;;;;;;;9.40;3.50;;;;;;;;;;5076072;28;20035;-52
2022/02/20 04:28:58;;;;;;;10.25;3.55;;;;;;;;;;5075726;28;20560;-50
2022/02/20 04:31:24;;;;;;;10.55;3.10;;;;;;;;;;5093898;28;20059;-53
2022/02/20 04:33:50;;;;;;;11.35;3.10;;;;;;;;;;5075040;28;20056;-50
2022/02/20 04:36:16;;;;;;;8.57;3.38;;;;;;;;;;5093363;28;20117;-55
2022/02/20 04:38:42;;;;;;;10.35;4.15;;;;;;;;;;5093743;28;20026;-53
2022/02/20 04:41:08;;;;;;;11.10;4.25;;;;;;;;;;5075493;28;20047;-50
2022/02/20 04:43:34;;;;;;;9.52;3.60;;;;;;;;;;5093656;28;20481;-51
2022/02/20 04:46:00;;;;;;;14.15;3.60;;;;;;;;;;5074434;28;20124;-51
2022/02/20 04:48:26;;;;;;;9.63;3.10;;;;;;;;;;5093456;28;20047;-52
2022/02/20 04:50:52;;;;;;;10.70;3.25;;;;;;;;;;5075662;28;20051;-56
2022/02/20 04:53:18;;;;;;;9.02;3.78;;;;;;;;;;5093954;28;20487;-55
2022/02/20 04:55:44;;;;;;;7.65;3.00;;;;;;;;;;5092810;28;20032;-58
2022/02/20 04:58:10;;;;;;;11.75;3.10;;;;;;;;;;5093673;28;20028;-58
2022/02/20 05:00:36;;;;;;;8.60;3.10;;;;;;;;;;5093377;28;20035;-50
2022/02/20 05:03:02;;;;;;;10.15;3.33;;;;;;;;;;5075269;28;20073;-50
2022/02/20 05:05:28;;;;;;;12.93;3.65;;;;;;;;;;5092642;28;20437;-53
2022/02/20 05:07:54;;;;;;;11.35;3.50;;;;;;;;;;5092982;28;20111;-57
2022/02/20 05:10:20;;;;;;;11.68;4.13;;;;;;;;;;5093128;28;20024;-54
2022/02/20 05:12:46;;;;;;;15.23;3.97;;;;;;;;;;5074961;28;20021;-52
2022/02/20 05:15:12;;;;;;;11.50;4.03;;;;;;;;;;5074398;28;20426;-52
2022/02/20 05:17:39;;;;;;;14.90;4.25;;;;;;;;;;5092893;28;20016;-51
2022/02/20 05:20:05;;;;;;;10.52;3.90;;;;;;;;;;5093029;28;20417;-55
2022/02/20 05:22:31;;;;;;;15.40;3.97;;;;;;;;;;5093165;28;20093;-55
2022/02/20 05:24:57;;;;;;;15.65;4.18;;;;;;;;;;5073002;28;20122;-56
2022/02/20 05:27:23;;;;;;;14.77;4.45;;;;;;;;;;5074415;28;20043;-56
2022/02/20 05:29:49;;;;;;;13.02;4.22;;;;;;;;;;5093027;28;20020;-56
2022/02/20 05:32:23;;;;;;;16.05;4.35;;;;;;;;;;5093081;28;20534;-55
2022/02/20 05:34:50;;;;;;;12.02;4.20;;;;;;;;;;5092039;28;20472;-54
2022/02/20 05:37:16;;;;;;;12.43;4.15;;;;;;;;;;5092620;28;20024;-55
2022/02/20 05:39:42;;;;;;;13.32;4.18;;;;;;;;;;5093237;28;20365;-53
2022/02/20 05:42:08;;;;;;;14.15;3.95;;;;;;;;;;5092827;28;20110;-56
2022/02/20 05:44:34;;;;;;;13.82;4.60;;;;;;;;;;5073919;28;20024;-52
2022/02/20 05:47:00;;;;;;;12.25;4.45;;;;;;;;;;5074634;28;20028;-52
2022/02/20 05:49:26;;;;;;;13.57;4.35;;;;;;;;;;5092776;28;20034;-52
2022/02/20 05:51:52;;;;;;;13.73;4.30;;;;;;;;;;5092398;28;20031;-51
2022/02/20 05:54:18;;;;;;;11.35;4.10;;;;;;;;;;5091589;28;20422;-55
2022/02/20 05:56:45;;;;;;;16.08;4.57;;;;;;;;;;5092447;28;20387;-53
2022/02/20 05:59:11;;;;;;;14.80;4.47;;;;;;;;;;5092946;28;20089;-50
2022/02/20 06:01:38;;;;;;;14.63;4.40;;;;;;;;;;5093020;28;20262;-52
2022/02/20 06:04:04;;;;;;;16.02;4.20;;;;;;;;;;5073896;28;20024;-52
2022/02/20 06:06:33;;;;;;;13.40;4.80;;;;;;;;;;5092423;28;20414;-56
2022/02/20 06:08:59;;;;;;;14.43;4.63;;;;;;;;;;5074510;28;20194;-50
2022/02/20 06:11:26;;;;;;;14.20;4.40;;;;;;;;;;5092389;28;20472;-50
2022/02/20 06:13:52;;;;;;;14.05;4.97;;;;;;;;;;5073672;28;20029;-50
2022/02/20 06:16:19;;;;;;;16.65;5.47;;;;;;;;;;5092735;28;20024;-52
2022/02/20 06:18:47;;;;;;;16.05;4.90;;;;;;;;;;5092235;28;20380;-52
2022/02/20 06:21:14;;;;;;;14.52;4.93;;;;;;;;;;5073965;28;20105;-53
2022/02/20 06:23:40;;;;;;;12.40;4.85;;;;;;;;;;5092193;28;20062;-57
2022/02/20 06:26:06;;;;;;;15.57;5.05;;;;;;;;;;5091194;28;20032;-55
2022/02/20 06:28:32;;;;;;;23.27;5.95;;;;;;;;;;5095095;23;20048;-58
2022/02/20 06:30:58;;;;;;;14.77;5.15;;;;;;;;;;5072512;28;20048;-58
2022/02/20 06:33:24;;;;;;;16.52;5.35;;;;;;;;;;5072352;28;20461;-57
2022/02/20 06:35:50;;;;;;;18.23;5.57;;;;;;;;;;5073065;28;20436;-56
2022/02/20 06:38:16;;;;;;;16.90;6.32;;;;;;;;;;5075694;28;20100;-56
2022/02/20 06:40:42;;;;;;;16.02;5.85;;;;;;;;;;5075835;28;20063;-57
2022/02/20 06:43:08;;;;;;;17.95;6.35;;;;;;;;;;5075786;28;20028;-59
2022/02/20 06:45:34;;;;;;;15.43;6.63;;;;;;;;;;5073595;28;20024;-55
2022/02/20 06:48:00;;;;;;;18.13;7.53;;;;;;;;;;5074235;28;20033;-57
2022/02/20 06:50:26;;;;;;;19.40;6.70;;;;;;;;;;5074329;28;20025;-57
2022/02/20 06:52:52;;;;;;;19.92;6.82;;;;;;;;;;5075378;28;20081;-56
2022/02/20 06:55:18;;;;;;;21.27;7.32;;;;;;;;;;5074494;28;20052;-55
2022/02/20 06:57:44;;;;;;;20.67;7.75;;;;;;;;;;5075108;28;20398;-59
2022/02/20 07:00:11;;;;;;;21.27;7.93;;;;;;;;;;5075629;28;20036;-58
2022/02/20 07:02:38;;;;;;;21.10;9.02;;;;;;;;;;5075741;28;20021;-59
2022/02/20 07:05:05;;;;;;;19.17;9.40;;;;;;;;;;5074927;28;20021;-56
2022/02/20 07:07:31;;;;;;;22.52;9.50;;;;;;;;;;5073890;28;20035;-58
2022/02/20 07:09:57;;;;;;;21.45;10.63;;;;;;;;;;5075280;28;20392;-56
2022/02/20 07:12:23;;;;;;;21.05;10.05;;;;;;;;;;5075213;28;20036;-58
2022/02/20 07:14:49;;;;;;;24.23;10.70;;;;;;;;;;5072934;28;20063;-54
2022/02/20 07:17:15;;;;;;;21.45;12.20;;;;;;;;;;5075241;28;20025;-57
2022/02/20 07:19:41;;;;;;;22.75;13.35;;;;;;;;;;5062642;28;20029;-57
2022/02/20 07:22:07;;;;;;;24.20;17.23;;;;;;;;;;5072882;28;20465;-58
2022/02/20 07:24:33;;;;;;;23.23;16.15;;;;;;;;;;5072407;28;20024;-58
2022/02/20 07:26:59;;;;;;;22.30;15.35;;;;;;;;;;5070653;28;20112;-57
2022/02/20 07:29:25;;;;;;;23.13;15.52;;;;;;;;;;5053562;28;20060;-56
2022/02/20 07:31:51;;;;;;;24.55;15.65;;;;;;;;;;5055109;28;20520;-60
2022/02/20 07:34:17;;;;;;;23.27;17.92;;;;;;;;;;5053994;28;20108;-60
2022/02/20 07:36:43;;;;;;;20.77;15.80;;;;;;;;;;5065787;28;20048;-60
2022/02/20 07:39:09;;;;;;;20.92;18.15;;;;;;;;;;5073665;28;20150;-60
2022/02/20 07:41:35;;;;;;;23.95;17.88;;;;;;;;;;5072793;28;20047;-59
2022/02/20 07:44:01;;;;;;;23.50;17.88;;;;;;;;;;5073841;28;20033;-66
2022/02/20 07:46:27;;;;;;;24.70;17.98;;;;;;;;;;5073856;28;20035;-64
2022/02/20 07:48:57;;;;;;;24.08;18.98;;;;;;;;;;5072939;28;20036;-65
2022/02/20 07:51:23;;;;;;;27.40;19.27;;;;;;;;;;5074381;28;20051;-61
2022/02/20 07:53:49;;;;;;;27.15;19.13;;;;;;;;;;5060999;28;20388;-61
2022/02/20 07:56:16;;;;;;;26.15;17.38;;;;;;;;;;5053893;28;20029;-61
2022/02/20 07:58:43;;;;;;;26.80;18.40;;;;;;;;;;5054038;28;20024;-63
2022/02/20 08:01:10;;;;;;;30.10;16.80;;;;;;;;;;5054348;28;20029;-65
2022/02/20 08:03:36;;;;;;;39.38;19.80;;;;;;;;;;5054125;28;20043;-64
2022/02/20 08:06:03;;;;;;;26.30;16.27;;;;;;;;;;5053685;28;20021;-65
2022/02/20 08:08:29;;;;;;;28.38;14.18;;;;;;;;;;5053864;28;20028;-65
2022/02/20 08:10:56;;;;;;;21.45;12.77;;;;;;;;;;5053569;28;20070;-61
2022/02/20 08:13:22;;;;;;;27.95;13.18;;;;;;;;;;5053978;28;20017;-64
2022/02/20 08:15:48;;;;;;;29.77;18.67;;;;;;;;;;5051831;28;20040;-63
2022/02/20 08:18:14;;;;;;;25.42;13.98;;;;;;;;;;5053870;28;20040;-61
2022/02/20 08:20:40;;;;;;;23.88;13.63;;;;;;;;;;5063993;28;20404;-59
2022/02/20 08:23:07;;;;;;;25.98;14.07;;;;;;;;;;5073835;28;20017;-59
2022/02/20 08:25:33;;;;;;;24.63;13.38;;;;;;;;;;5071097;28;20025;-59
2022/02/20 08:27:59;;;;;;;24.80;15.88;;;;;;;;;;5072064;28;20044;-59
2022/02/20 08:30:25;;;;;;;24.60;18.15;;;;;;;;;;5073655;28;20021;-59
2022/02/20 08:32:51;;;;;;;26.85;18.50;;;;;;;;;;5072223;28;20020;-61
2022/02/20 08:35:17;;;;;;;23.35;16.48;;;;;;;;;;5072844;28;20395;-60
2022/02/20 08:37:45;;;;;;;25.10;16.45;;;;;;;;;;5073939;28;20020;-61
2022/02/20 08:40:15;;;;;;;22.48;16.20;;;;;;;;;;5071906;28;20017;-61
2022/02/20 08:42:42;;;;;;;25.10;14.77;;;;;;;;;;5073804;28;20024;-63
2022/02/20 08:45:07;;;;;;;21.92;14.25;;;5.90;99.90;;;;;;5072619;28;20025;-59
2022/02/20 08:47:33;;;;;;;22.88;15.60;;;6.30;99.90;;;;;;5073071;28;20073;-61
2022/02/20 08:50:00;;;;;;;14.27;10.80;;;6.40;99.90;;;;;;5072699;28;20093;-59
2022/02/20 08:52:27;;;;;;;13.90;9.80;;;;;;;;;;5073477;28;20052;-62
2022/02/20 08:54:53;;;;;;;14.40;11.30;;;;;;;;;;5059563;28;20025;-54
2022/02/20 08:57:19;;;;;;;14.27;10.90;;;;;;;;;;5053475;28;20029;-59
2022/02/20 08:59:45;;;;;;;13.95;9.95;;;;;;;;;;5053592;28;20021;-58
2022/02/20 09:02:12;;;;;;;14.18;10.50;;;;;;;;;;5053990;28;20033;-56
2022/02/20 09:04:39;;;;;;;14.38;11.23;;;;;;;;;;5052228;28;20100;-60
2022/02/20 09:07:05;;;;;;;15.30;13.20;;;6.50;99.90;;;;;;5052507;28;20033;-56
2022/02/20 09:09:31;;;;;;;14.80;12.43;;;;;;;;;;5053213;28;20405;-66
2022/02/20 09:11:57;;;;;;;14.65;12.07;;;;;;;;;;5053165;28;20036;-66
2022/02/20 09:14:24;;;;;;;14.85;12.80;;;;;;;;;;5050994;28;20029;-65
2022/02/20 09:16:50;;;;;;;15.20;13.57;;;;;;;;;;5052615;28;20070;-65
2022/02/20 09:19:16;;;;;;;17.70;16.00;;;;;;;;;;5051551;28;20024;-65
2022/02/20 09:21:42;;;;;;;17.77;15.98;;;;;;;;;;5067764;28;20028;-66
2022/02/20 09:24:08;;;;;;;15.25;13.65;;;;;;;;;;5057125;28;20116;-63
2022/02/20 09:26:34;;;;;;;14.90;12.73;;;;;;;;;;5051549;28;20029;-65
2022/02/20 09:29:00;;;;;;;14.57;9.88;;;;;;;;;;5052823;28;20029;-66
2022/02/20 09:31:26;;;;;;;13.55;8.65;;;;;;;;;;5052918;28;20090;-66
2022/02/20 09:33:52;;;;;;;13.30;7.97;;;;;;;;;;5050955;28;20028;-66
2022/02/20 09:36:18;;;;;;;12.82;7.60;;;;;;;;;;5055944;28;20047;-61
2022/02/20 09:38:44;;;;;;;14.05;9.05;;;;;;;;;;5061750;28;20036;-65
2022/02/20 09:41:11;;;;;;;11.77;7.10;;;;;;;;;;5068610;28;20056;-62
2022/02/20 09:43:38;;;;;;;11.00;6.50;;;;;;;;;;5069093;28;20017;-65
2022/02/20 09:46:05;;;;;;;12.25;7.25;;;;;;;;;;5060677;28;20296;-57
2022/02/20 09:48:31;;;;;;;15.13;13.52;;;;;;;;;;5059757;28;20480;-60
2022/02/20 09:50:59;;;;;;;14.73;12.30;;;;;;;;;;5060147;28;20020;-61
2022/02/20 09:53:26;;;;;;;14.70;12.23;;;7.20;99.90;;;;;;5062206;28;20027;-61
2022/02/20 09:55:51;;;;;;;16.05;12.25;;;7.90;99.90;;;;;;5060278;28;20044;-61
2022/02/20 09:58:17;;;;;;;14.27;10.90;;;8.00;99.90;;;;;;5052161;28;20108;-59
2022/02/20 10:01:03;;;;;;;14.60;11.80;;;8.00;99.90;;;;;;5051169;28;20104;-61
2022/02/20 10:03:34;;;;;;;14.60;11.80;;;8.10;99.90;;;;;;5051008;28;20060;-62
2022/02/20 10:06:04;;;;;;;14.50;11.63;;;8.10;99.90;;;;;;5049922;28;20075;-61
2022/02/20 10:08:42;;;;;;;;;;;8.20;99.90;;;;;;5051846;28;20079;-55
2022/02/20 10:11:25;;;;;;;13.80;9.35;;;8.20;99.90;;;;;;5056384;28;19935;-58
2022/02/20 10:14:15;;;;;;;13.55;8.75;;;8.30;99.90;;;;;;5057633;28;20029;-59
2022/02/20 10:16:40;;;;;;;13.30;8.13;;;8.30;99.90;;;;;;5050691;28;20432;-61
2022/02/20 10:19:10;;;;;;;13.25;8.13;;;8.40;99.90;;;;;;5057381;28;20017;-55
2022/02/20 10:21:36;;;;;;;13.63;9.20;;;8.40;99.90;;;;;;5073313;28;20476;-59
2022/02/20 10:24:07;;;;;;;11.77;6.97;;;8.50;99.90;;;;;;5077122;28;20038;-59
2022/02/20 10:26:41;;;;;;;11.00;6.72;;;8.50;99.90;;;;;;5078678;28;20025;-62
2022/02/20 10:29:09;;;;;;;10.50;6.40;;;8.60;99.90;;;;;;5077226;28;20028;-61
2022/02/20 10:31:46;;;;;;;9.50;5.70;;;8.60;99.90;;;;;;5077470;28;20028;-59
2022/02/20 10:34:25;;;;;;;10.07;6.67;;;8.70;99.90;;;;;;5078083;28;20021;-65
2022/02/20 10:37:03;;;;;;;9.50;5.70;;;8.70;99.90;;;;;;5078301;28;20019;-64
2022/02/20 10:39:47;;;;;;;8.95;5.30;;;8.70;99.90;;;;;;5078008;28;20024;-61
2022/02/20 10:42:15;;;;;;;19.80;6.25;;;8.80;99.90;;;;;;5078178;28;20025;-60
2022/02/20 10:44:52;;;;;;;6.95;4.18;;;8.80;99.90;;;;;;5076311;28;20395;-58
2022/02/20 10:47:18;;;;;;;7.05;4.20;;;8.90;99.90;;;;;;5076767;28;20032;-60
2022/02/20 10:49:43;;;;;;;6.85;4.10;;;8.90;99.90;;;;;;5077935;28;20032;-57
2022/02/20 10:52:23;;;;;;;7.55;5.10;;;8.90;99.90;;;;;;5076806;28;20096;-60
2022/02/20 10:55:04;;;;;;;6.65;3.90;;;9.00;99.90;;;;;;5075989;28;20123;-58
2022/02/20 10:57:38;;;;;;;6.53;3.88;;;9.00;99.90;;;;;;5077983;28;20021;-59
2022/02/20 11:00:14;;;;;;;6.20;3.65;;;9.00;99.90;;;;;;5076123;28;20031;-61
2022/02/20 11:02:40;;;;;;;6.60;3.92;;;9.00;99.90;;;;;;5076687;28;20032;-65
2022/02/20 11:05:07;;;;;;;5.80;3.50;;;9.10;99.90;;;;;;5076590;28;20044;-54
2022/02/20 11:07:37;;;;;;;5.47;3.30;;;9.10;99.90;;;;;;5077624;28;20136;-51
2022/02/20 11:10:08;;;;;;;5.05;3.00;;;9.10;99.90;;;;;;5077979;28;20511;-54
2022/02/20 11:12:38;;;;;;;5.15;2.97;;;9.20;99.90;;;;;;5077963;28;20599;-58
2022/02/20 11:15:05;;;;;;;5.60;3.17;;;9.20;99.90;;;;;;5077246;28;20021;-55
2022/02/20 11:17:31;;;;;;;3.92;2.38;;;9.20;99.90;;;;;;5077883;28;20020;-55
2022/02/20 11:19:58;;;;;;;3.50;2.10;;;9.20;99.90;;;;;;5079955;28;20048;-57
2022/02/20 11:22:29;;;;;;;4.57;2.67;;;9.30;99.90;;;;;;5094425;28;20034;-56
2022/02/20 11:24:58;;;;;;;4.47;2.78;;;9.30;99.90;;;;;;5094493;28;20484;-53
2022/02/20 11:27:25;;;;;;;4.85;3.75;;;9.30;99.90;;;;;;5094841;28;20036;-57
2022/02/20 11:29:51;;;;;;;3.55;2.10;;;9.30;99.90;;;;;;5093732;28;20567;-53
2022/02/20 11:32:18;;;;;;;3.90;2.35;;;9.20;99.90;;;;;;5095797;28;20103;-58
2022/02/20 11:34:45;;;;;;;11.13;6.00;;;9.20;99.90;;;;;;5095119;28;20020;-55
2022/02/20 11:37:12;;;;;;;4.10;2.40;;;9.20;99.90;;;;;;5095110;28;20028;-59
2022/02/20 11:40:01;;;;;;;4.50;2.70;;;9.20;99.90;;;;;;5094616;28;20092;-57
2022/02/20 11:42:27;;;;;;;4.53;2.70;;;9.20;99.90;;;;;;5094977;28;20157;-53
2022/02/20 11:45:03;;;;;;;6.68;4.00;;;9.20;99.90;;;;;;5092795;28;20093;-53
2022/02/20 11:47:35;;;;;;;6.78;4.05;;;9.10;99.90;;;;;;5094386;28;20032;-57
2022/02/20 11:50:20;;;;;;;9.00;5.30;;;9.10;99.90;;;;;;5094337;28;20121;-53
2022/02/20 11:52:59;;;;;;;12.55;7.65;;;9.00;99.90;;;;;;5094175;28;20044;-54
2022/02/20 11:55:32;;;;;;;13.48;8.40;;;9.00;99.90;;;;;;5093789;28;20074;-57
2022/02/20 11:58:10;;;;;;;13.60;8.82;;;9.00;99.90;;;;;;5095082;28;20020;-58
2022/02/20 12:00:40;;;;;;;14.40;11.13;;;8.90;99.90;;;;;;5093607;28;20049;-60
2022/02/20 12:03:07;;;;;;;13.90;9.88;;;9.00;99.90;;;;;;5094442;28;20111;-53
2022/02/20 12:05:35;;;;;;;13.55;8.88;;;9.00;99.90;;;;;;5093782;28;20059;-55
2022/02/20 12:08:08;;;;;;;12.65;7.60;;;9.00;99.90;;;;;;5092557;28;20024;-55
2022/02/20 12:10:36;;;;;;;11.07;6.57;;;9.00;99.90;;;;;;5094482;28;20046;-59
2022/02/20 12:13:07;;;;;;;9.48;5.68;;;9.10;99.90;;;;;;5094362;28;20056;-59
2022/02/20 12:15:41;;;;;;;16.20;8.02;;;9.10;99.90;;;;;;5093703;28;20039;-63
2022/02/20 12:18:13;;;;;;;8.60;5.10;;;9.20;99.90;;;;;;5094123;28;20020;-58
2022/02/20 12:20:56;;;;;;;7.85;4.70;;;9.20;99.90;;;;;;5071479;28;20029;-51
2022/02/20 12:23:29;;;;;;;8.70;5.20;;;9.20;99.90;;;;;;5062528;28;20476;-53
2022/02/20 12:25:56;;;;;;;7.75;4.60;;;9.20;99.90;;;;;;5064308;28;20074;-58
2022/02/20 12:28:31;;;;;;;7.60;4.60;;;9.20;99.90;;;;;;5055279;28;20033;-54
2022/02/20 12:30:57;;;;;;;8.07;4.90;;;9.30;99.90;;;;;;4706981;28;10000277;-57
2022/02/20 12:33:30;;;;;;;8.93;5.32;;;9.30;99.90;;;;;;5058727;28;20761;-59
2022/02/20 12:35:57;;;;;;;7.72;4.60;;;9.30;99.90;;;;;;5059333;28;20039;-55
2022/02/20 12:38:23;;;;;;;7.22;4.30;;;9.30;99.90;;;;;;5058660;28;20021;-58
2022/02/20 12:40:48;;;;;;;7.70;4.60;;;9.30;99.90;;;;;;5058009;28;20096;-53
2022/02/20 12:43:14;;;;;;;8.27;4.95;;;9.30;99.90;;;;;;5060128;28;20053;-58
2022/02/20 12:45:41;;;;;;;7.85;4.68;;;9.40;99.90;;;;;;5057829;28;20481;-58
2022/02/20 12:48:11;;;;;;;7.70;4.60;;;9.30;99.90;;;;;;5060045;28;20040;-56
2022/02/20 12:50:42;;;;;;;7.40;4.43;;;9.40;99.90;;;;;;5060040;28;20036;-57
2022/02/20 12:53:09;;;;;;;7.90;5.15;;;9.40;99.90;;;;;;5058964;28;20031;-55
2022/02/20 12:55:36;;;;;;;8.20;4.90;;;9.50;99.90;;;;;;5057437;28;20031;-59
2022/02/20 12:58:05;;;;;;;9.35;5.57;;;9.40;99.90;;;;;;5060238;28;20012;-55
2022/02/20 13:00:33;;;;;;;10.35;6.30;;;9.40;99.90;;;;;;5049341;28;20087;-56
2022/02/20 13:03:02;;;;;;;9.35;5.47;;;9.30;99.90;;;;;;5049419;28;20623;-54
2022/02/20 13:05:35;;;;;;;8.38;5.00;;;9.30;99.90;;;;;;5051158;28;20089;-57
2022/02/20 13:08:07;;;;;;;9.00;5.50;;;9.30;99.90;;;;;;5069251;28;20028;-58
2022/02/20 13:10:38;;;;;;;9.30;5.53;;;9.30;99.90;;;;;;5069315;28;20600;-56
2022/02/20 13:13:03;;;;;;;8.60;5.10;;;9.30;99.90;;;;;;5069494;28;20028;-58
2022/02/20 13:15:39;;;;;;;8.30;4.97;;;9.40;99.90;;;;;;5068130;28;20710;-57
2022/02/20 13:18:20;;;;;;;10.38;6.13;;;9.40;99.90;;;;;;5068731;28;20028;-61
2022/02/20 13:20:56;;;;;;;10.40;6.22;;;9.40;99.90;;;;;;5059388;28;20029;-59
2022/02/20 13:23:44;;;;;;;9.45;5.60;;;9.40;99.90;;;;;;5049233;28;20493;-60
2022/02/20 13:26:20;;;;;;;8.80;5.22;;;9.30;99.90;;;;;;5048546;28;20125;-51
2022/02/20 13:28:53;;;;;;;8.80;5.30;;;9.40;99.90;;;;;;5057734;28;20057;-55
2022/02/20 13:31:34;;;;;;;9.38;5.80;;;9.40;99.90;;;;;;5051955;28;20074;-54
2022/02/20 13:34:01;;;;;;;10.98;6.75;;;9.30;99.90;;;;;;5054671;28;20106;-53
2022/02/20 13:36:35;;;;;;;8.60;5.18;;;9.40;99.90;;;;;;5058068;28;20020;-54
2022/02/20 13:39:20;;;;;;;9.07;5.38;;;9.30;99.90;;;;;;5058019;28;20514;-55
2022/02/20 13:41:50;;;;;;;9.70;5.80;;;9.30;99.90;;;;;;5058951;28;20025;-57
2022/02/20 13:44:37;;;;;;;9.25;5.50;;;9.30;99.90;;;;;;5053439;28;20515;-52
2022/02/20 13:47:11;;;;;;;12.25;7.15;;;9.20;99.90;;;;;;5059139;28;20090;-58
2022/02/20 13:49:50;;;;;;;11.82;7.10;;;9.20;99.90;;;;;;5056687;28;20098;-55
2022/02/20 13:52:28;;;;;;;11.82;6.93;;;9.20;99.90;;;;;;5048718;28;20028;-56